Wild Rice, North Dakota
Current Conditions -  °F | °C
As of 10:14 PM on Wednesday 22 Oct 2014 (Local Time) from KJKJ Reporting Station
Scattered Clouds Scattered Clouds  
Wind Chill: 54°   Ceiling: Unl
Heat Index: 54°   Visibility: 10mi
Dew Point: 54°   Wind: 0mph
Humidity: 100%   Direction: NA
Pressure: 29.91"   Gusts: NA
Location:  46.7039°N, 96.8572°W
Report Text: KJKJ 230314Z AUTO 00000KT 10SM SCT120 12/12 A2991 RMK AO2
Loading
Personal Weather Stations






























Interactive Weather Map
Tropical Storm Tracking
New forecast layout! Learn more

10-Day Weather Forecast

Advertisements
Track Severe Weather on mobile